INDIA METEOROLOGICAL DEPARTMENT, R.M.C. NEW DELHI
Dated:5 - 9 - 2015
METARS


Agartala   
VEAT 051200Z 20003KT 4000 BR SCT020 FEW030CB SCT100 28/25 Q1005 NOSIG RMK CB TO SW=
Ahmedabad  
VAAH 051140Z 30002KT 6000 FEW020 37/24 Q1008 BECMG 5000 FU=
Amritsar   
VIAR 051200Z 18005KT 5000 HZ NSC 33/22 Q1007 NOSIG=
Aurangabad 
VAAU 051200Z 07003KT 6000 FEW020 SCT025 31/24 Q1011=
Bangalore  
VOBL 051200Z 17004KT 140V200 8000 FEW012 FEW025TCU 30/25 Q1013 NOSIG RMK TCU NW=
Baroda     
VABO 051200Z 27005KT 6000 FEW020 SCT025 34/23 Q1008=
Bhaunagar  
VABV 051130Z 20005KT 6000 NSC 33/24 Q1009=
Bhopal     
VABP 051200Z 32008KT 6000 FEW030 32/20 Q1011=
Bhubaneswar
VEBS 051200Z 07006KT 1500 TSRA BKN016 FEW030CB OVC080 26/25 Q1008 NOSIG=
Bhuntar    
VIBR 051200Z 18008KT 8000 FEW030 27/17 Q1012=
Chennai    
VOMM 051210Z 15007KT 6000 FEW020 32/25 Q1007 NOSIG=
Coimbatore 
VOCB 051130Z 16013KT 6000 -RA SCT015 FEW020CB BKN080 31/21 Q1010 TEMPO 5000 -TSRA=
Colombo    
VCBI 051210Z 12005KT 9000 SCT016 FEW018CB 27/23 Q1010 NOSIG=
Delhi      
VIDP 051200Z 31010KT 4000 HZ NSC 35/17 Q1007 NOSIG =
Dehradun   
VIDN 051200Z 09005KT 2500 HZ BKN020 FEW035CB OVC060 28/25 Q1008 =
Gauhati    
VEGT 051200Z 29005KT 4000 HZ SCT018 FEW025CB OVC090 30/27 Q1005 NOSIG=
Gaya       
VEGY 051100Z 29010KT 4000 HZ SCT018 35/22 Q1006 =
Hyderabad  
VOHS 051210Z 16005KT 4000 TS BKN015 SCT025 FEW030CB/NW/E/SE BKN080 27/22 Q1012 TEMPO 3000 FBLTSRA=
Imphal     
VEIM 051200Z 27010KT 5000 HZ FEW020 SCT100 27/21 Q1009 NOSIG=
Indore     
VAID 051200Z 34005KT 5000 HZ FEW020 SCT025 33/20 Q1011 NOSIG=
Jaipur     
VIJP 051130Z 32001KT 5000 HZ FEW040 36/18 Q1009 NOSIG=
Kochi      
VOCI 051200Z 25008KT 7000 FEW015 FEW025CB 29/25 Q1008 NOSIG=
Kolkata    
VECC 051150Z 19009KT 2000 HZ FEW018 SCT100 32/26 Q1005 NOSIG=
Kozhikode  
SPECI VOCL 051200Z 25008KT 8000 FEW015 FEW025CB 30/24 Q1008 NOSIG=
Lucknow    
VILK 051200Z 32006KT 5000 HZ NSC 36/23 Q1005 NOSIG=
Madurai    
VOMD 051200Z 18007KT 6000 FEW020 FEW025TCU SCT090 30/23 Q1009 NOSIG=
Mumbai     
VABB 051210Z 29010KT 5000 HZ FEW020 30/24 Q1009 NOSIG=
Nagpur     
VANP 051140Z 00000KT 6000 FEW020 35/24 Q1009 NOSIG=
Pantnagar
VIPT 051130Z 32002KT 2500 HZ FEW030 OVC100 32/25 Q1006 =
Patna      
VEPT 051150Z 32006KT 5000 HZ SCT018 SCT025 BKN100 32/23 Q1004 NOSIG=
Raipur     
VERP 051200Z 25003KT 5000 HZ FEW020 SCT025 32/24 Q1008 NOSIG=
Safdarjung
VIDD 051200Z 32005KT 4000 HZ NSC 35/19 Q1007=
Ranchi     
VERC 051200Z 32004KT 4000 HZ SCT018 31/22 Q1010 NOSIG =
Trichy     
VOTR 051210Z 16005KT 6000 FEW018 29/25 Q1008 NOSIG=
Trivandrum 
SPECI VOTV 051140Z 14004KT 3000 HZ SCT015 FEW025CB N NE BKN080 29/25 Q1009 TEMPO 2000 TSRA =
Udaipur    
VAUD 051200Z 23004KT 6000 FEW025 BKN035 32/20 Q1012 NOSIG=
Varanasi   
SPECI VEBN 051130Z 27003KT 5000 HZ NSC 35/22 Q1005=
Vizag      
VOVZ 051200Z VRB01KT 6000 FEW018 BKN090 31/28 Q1007 NOSIG =
Male       
VRMM 051200Z VRB02KT 9999 FEW018 FEW019CB BKN130 30/26 Q1011 CB ENE NOSIG=
Kathmandu   
VNKT 051150Z 28006KT 7000 FEW020 26/20 Q1012 NOSIG=
Dhaka      
VGHS 051150Z 00000KT 4000 HZ BKN010 BKN100 27/24 Q1005 TEMPO RA=
Colombo     
VCBI 051210Z 12005KT 9000 SCT016 FEW018CB 27/23 Q1010 NOSIG=
Karachi     
OPKC 051125Z 22014KT 7000 FEW020 31/21 Q1009 NOSIG=
Lahore      
OPLA 051130Z 25008KT 7000 NSC 37/21 Q1006=
Leh        
VILH 051130Z 27012KT 6000 SCT070 22/M07 Q1019 TEMPO 29015G25KT RMK AC=
Sri Nagar  
VISR 051130Z VRB02KT 6000 SCT025 FEWTCU030 SCT200 25/08 Q1016 NOSIG=
Jammu      
VIJU 051030Z 23004KT 6000 SCT030 FEW030CB 35/23 Q1006 NOSIG=
Jodhpur    
VIJO 051130Z 25007KT 8000 FEW030 SCT040 35/18 Q1009 NOSIG=
Bhuj-Rudra 
VABJ 051130Z 21010KT 6000 FEW025 SCT030 32/22 Q1010 NOSIG=
Gorakhpur  
VEGK 051130Z 28007KT 6000 FEW025 33/22 Q1004 NOSIG=
Allahabad  
VIAL 051130Z 28005KT 6000 FEW030 35/22 Q1005 NOSIG=
Agra       
VIAG 051130Z 32010KT 6000 37/16 Q1006 NOSIG=
Siliguri   
VEBD 051130Z VRB02KT 6000 SCT025 SCT090 29/26 Q1005 NOSIG=
Gwalior    
VIGR 051130Z 27005KT 6000 FEW030 36/19 Q1007 NOSIG=
Pune       
VAPO 051130Z 29012KT 6000 SCT030 32/22 Q1012 NOSIG=
Chandigarh 
VICG 051130Z 31008KT 6000 SKC 32/20 Q1008 NOSIG=
Jamnagar   
VAJM 051130Z 29008KT 6000 FEW030 SCT250 31/19 Q1009 NOSIG=